createdAt,value
2018-07-27T00:00:41.466Z,21.78
2018-07-27T00:03:10.585Z,21.72
2018-07-27T00:05:39.673Z,21.67
2018-07-27T00:08:08.628Z,21.67
2018-07-27T00:10:37.588Z,21.72
2018-07-27T00:13:06.522Z,21.70
2018-07-27T00:15:39.817Z,21.70
2018-07-27T00:18:08.771Z,21.66
2018-07-27T00:20:37.704Z,21.63
2018-07-27T00:23:06.694Z,21.60
2018-07-27T00:25:35.684Z,21.56
2018-07-27T00:28:04.588Z,21.48
2018-07-27T00:30:33.543Z,21.47
2018-07-27T00:33:02.561Z,21.43
2018-07-27T00:35:31.499Z,21.35
2018-07-27T00:38:00.444Z,21.41
2018-07-27T00:40:29.368Z,21.37
2018-07-27T00:42:58.327Z,21.35
2018-07-27T00:45:27.270Z,21.32
2018-07-27T00:47:56.319Z,21.31
2018-07-27T00:50:25.264Z,21.32
2018-07-27T00:52:54.209Z,21.24
2018-07-27T00:55:23.409Z,21.20
2018-07-27T00:57:52.348Z,21.12
2018-07-27T01:00:21.319Z,21.10
2018-07-27T01:02:50.346Z,21.05
2018-07-27T01:05:19.336Z,21.02
2018-07-27T01:07:48.296Z,20.99
2018-07-27T01:10:17.264Z,21.00
2018-07-27T01:12:46.245Z,21.00
2018-07-27T01:15:15.249Z,20.98
2018-07-27T01:17:44.195Z,20.97
2018-07-27T01:20:13.173Z,20.91
2018-07-27T01:22:42.391Z,20.92
2018-07-27T01:25:11.313Z,20.92
2018-07-27T01:27:40.268Z,20.91
2018-07-27T01:30:09.208Z,20.89
2018-07-27T01:32:38.540Z,20.89
2018-07-27T01:35:07.497Z,20.83
2018-07-27T01:37:36.476Z,20.86
2018-07-27T01:40:05.743Z,20.83
2018-07-27T01:42:34.684Z,20.80
2018-07-27T01:45:03.628Z,20.79
2018-07-27T01:47:32.675Z,20.78
2018-07-27T01:50:01.618Z,20.74
2018-07-27T01:52:30.563Z,20.69
2018-07-27T01:54:59.480Z,20.64
2018-07-27T01:57:28.491Z,20.64
2018-07-27T01:59:57.536Z,20.61
2018-07-27T02:02:26.476Z,20.63
2018-07-27T02:04:55.394Z,20.63
2018-07-27T02:07:24.365Z,20.62
2018-07-27T02:09:53.421Z,20.63
2018-07-27T02:12:22.398Z,20.67
2018-07-27T02:14:51.515Z,20.67
2018-07-27T02:17:20.423Z,20.67
2018-07-27T02:19:49.378Z,20.62
2018-07-27T02:22:18.340Z,20.63
2018-07-27T02:24:47.277Z,20.60
2018-07-27T02:27:16.241Z,20.60
2018-07-27T02:29:45.171Z,20.63
2018-07-27T02:32:14.126Z,20.65
2018-07-27T02:34:43.039Z,20.57
2018-07-27T02:37:11.965Z,20.56
2018-07-27T02:39:40.916Z,20.46
2018-07-27T02:42:09.894Z,20.41
2018-07-27T02:44:38.835Z,20.42
2018-07-27T02:47:08.011Z,20.36
2018-07-27T02:49:37.043Z,20.36
2018-07-27T02:52:06.025Z,20.35
2018-07-27T02:54:34.965Z,20.36
2018-07-27T02:57:03.876Z,20.29
2018-07-27T02:59:32.813Z,20.22
2018-07-27T03:02:01.842Z,20.17
2018-07-27T03:04:30.846Z,20.17
2018-07-27T03:06:59.800Z,20.14
2018-07-27T03:09:28.766Z,20.16
2018-07-27T03:11:57.718Z,20.11
2018-07-27T03:14:26.652Z,20.09
2018-07-27T03:16:55.750Z,20.06
2018-07-27T03:19:24.687Z,19.99
2018-07-27T03:21:53.614Z,20.00
2018-07-27T03:24:22.762Z,19.95
2018-07-27T03:26:51.717Z,19.94
2018-07-27T03:29:20.667Z,19.88
2018-07-27T03:31:49.567Z,19.85
2018-07-27T03:34:18.512Z,19.85
2018-07-27T03:36:47.439Z,19.84
2018-07-27T03:39:16.416Z,19.85
2018-07-27T03:41:45.371Z,19.84
2018-07-27T03:44:14.331Z,19.80
2018-07-27T03:46:43.306Z,19.75
2018-07-27T03:49:12.302Z,19.81
2018-07-27T03:51:41.256Z,19.88
2018-07-27T03:54:10.245Z,19.94
2018-07-27T03:56:39.256Z,20.03
2018-07-27T03:59:08.196Z,20.02
2018-07-27T04:01:37.190Z,20.06
2018-07-27T04:04:06.156Z,19.99
2018-07-27T04:06:35.253Z,20.01
2018-07-27T04:09:06.135Z,20.07
2018-07-27T04:11:35.087Z,20.01
2018-07-27T04:14:04.033Z,20.04
2018-07-27T04:16:33.006Z,20.09
2018-07-27T04:19:02.376Z,20.17
2018-07-27T04:21:31.616Z,20.14
2018-07-27T04:24:00.596Z,20.23
2018-07-27T04:26:29.518Z,20.29
2018-07-27T04:28:58.456Z,20.30
2018-07-27T04:31:27.410Z,20.32
2018-07-27T04:33:56.333Z,20.35
2018-07-27T04:36:25.258Z,20.28
2018-07-27T04:38:54.207Z,20.31
2018-07-27T04:41:23.131Z,20.32
2018-07-27T04:43:52.186Z,20.45
2018-07-27T04:46:21.448Z,20.56
2018-07-27T04:48:50.385Z,20.58
2018-07-27T04:51:19.440Z,20.70
2018-07-27T04:53:48.476Z,20.73
2018-07-27T04:56:17.535Z,20.76
2018-07-27T04:58:46.513Z,20.90
2018-07-27T05:01:15.518Z,20.89
2018-07-27T05:03:44.607Z,20.99
2018-07-27T05:06:14.107Z,21.01
2018-07-27T05:09:52.220Z,21.02
2018-07-27T05:12:21.216Z,21.13
2018-07-27T05:14:50.840Z,21.23
2018-07-27T05:17:19.941Z,21.23
2018-07-27T05:19:48.908Z,21.17
2018-07-27T05:22:17.938Z,21.12
2018-07-27T05:24:47.472Z,21.15
2018-07-27T05:27:16.416Z,21.29
2018-07-27T05:29:45.369Z,21.35
2018-07-27T05:32:14.294Z,21.50
2018-07-27T05:34:43.256Z,21.58
2018-07-27T05:37:12.194Z,21.69
2018-07-27T05:39:41.579Z,21.97
2018-07-27T05:42:10.552Z,22.15
2018-07-27T05:44:39.633Z,22.30
2018-07-27T05:47:12.425Z,22.33
2018-07-27T05:49:41.308Z,22.34
2018-07-27T05:52:10.334Z,22.36
2018-07-27T05:54:39.324Z,22.21
2018-07-27T05:57:08.366Z,22.14
2018-07-27T05:59:37.325Z,22.01
2018-07-27T06:02:06.318Z,22.06
2018-07-27T06:04:35.239Z,22.20
2018-07-27T06:07:04.196Z,22.35
2018-07-27T06:09:33.163Z,22.39
2018-07-27T06:12:02.104Z,22.34
2018-07-27T06:14:31.071Z,22.40
2018-07-27T06:16:59.969Z,22.45
2018-07-27T06:19:28.877Z,22.47
2018-07-27T06:21:57.892Z,22.62
2018-07-27T06:24:28.770Z,22.73
2018-07-27T06:26:57.783Z,22.79
2018-07-27T06:29:26.708Z,22.77
2018-07-27T06:31:55.948Z,22.59
2018-07-27T06:34:24.847Z,22.67
2018-07-27T06:36:53.795Z,22.93
2018-07-27T06:39:23.096Z,23.29
2018-07-27T06:41:52.370Z,23.98
2018-07-27T06:44:21.284Z,23.87
2018-07-27T06:46:50.221Z,24.35
2018-07-27T06:49:19.200Z,24.63
2018-07-27T06:51:48.133Z,25.41
2018-07-27T06:54:17.160Z,26.39
2018-07-27T06:56:46.317Z,27.10
2018-07-27T06:59:15.300Z,27.50
2018-07-27T07:01:45.043Z,27.69
2018-07-27T07:04:14.665Z,28.37
2018-07-27T07:06:44.143Z,29.23
2018-07-27T07:09:13.412Z,30.17
2018-07-27T07:11:42.252Z,30.64
2018-07-27T07:14:11.189Z,31.89
2018-07-27T07:16:40.137Z,31.71
2018-07-27T07:19:09.813Z,31.11
2018-07-27T07:21:38.904Z,30.68
2018-07-27T07:24:08.283Z,30.21
2018-07-27T07:26:37.474Z,30.29
2018-07-27T07:29:06.411Z,31.89
2018-07-27T07:31:35.355Z,32.75
2018-07-27T07:34:04.279Z,33.50
2018-07-27T07:36:33.199Z,34.54
2018-07-27T07:39:02.226Z,33.80
2018-07-27T07:41:31.124Z,33.68
2018-07-27T07:44:00.138Z,32.94
2018-07-27T07:46:29.068Z,33.00
2018-07-27T07:49:02.145Z,32.62
2018-07-27T07:51:31.212Z,33.78
2018-07-27T07:54:00.357Z,34.57
2018-07-27T07:56:29.286Z,34.29
2018-07-27T07:58:58.232Z,35.40
2018-07-27T08:01:27.146Z,35.17
2018-07-27T08:03:56.316Z,34.68
2018-07-27T08:06:25.233Z,34.95
2018-07-27T08:08:54.487Z,33.74
2018-07-27T08:11:23.579Z,32.45
2018-07-27T08:13:52.512Z,33.39
2018-07-27T08:16:21.455Z,32.77
2018-07-27T08:18:50.340Z,34.07
2018-07-27T08:21:22.627Z,34.49
2018-07-27T08:23:51.540Z,35.14
2018-07-27T08:26:41.427Z,34.88
2018-07-27T08:29:11.316Z,33.93
2018-07-27T08:31:41.759Z,33.53
2018-07-27T08:34:11.039Z,34.27
2018-07-27T08:36:40.012Z,33.69
2018-07-27T08:39:10.292Z,34.41
2018-07-27T08:41:39.760Z,34.98
2018-07-27T08:44:09.666Z,35.64
2018-07-27T08:46:38.866Z,35.11
2018-07-27T08:49:08.040Z,35.78
2018-07-27T08:51:37.062Z,35.72
2018-07-27T08:54:05.960Z,35.74
2018-07-27T08:56:34.865Z,35.10
2018-07-27T08:59:03.762Z,34.86
2018-07-27T09:01:32.683Z,34.62
2018-07-27T09:04:01.613Z,34.08
2018-07-27T09:06:30.528Z,33.09
2018-07-27T09:08:59.434Z,32.46
2018-07-27T09:11:28.398Z,32.61
2018-07-27T09:13:57.293Z,32.18
2018-07-27T09:16:26.223Z,32.09
2018-07-27T09:18:55.156Z,32.79
2018-07-27T09:21:24.060Z,33.83
2018-07-27T09:23:52.969Z,34.96
2018-07-27T09:26:21.887Z,35.57
2018-07-27T09:28:50.852Z,36.24
2018-07-27T09:31:19.818Z,36.56
2018-07-27T09:33:48.732Z,37.14
2018-07-27T09:36:17.660Z,35.65
2018-07-27T09:38:46.591Z,35.51
2018-07-27T09:41:15.502Z,36.59
2018-07-27T09:43:44.441Z,36.54
2018-07-27T09:46:13.436Z,36.18
2018-07-27T09:48:46.504Z,34.82
2018-07-27T09:51:15.417Z,34.74
2018-07-27T09:53:44.362Z,36.02
2018-07-27T09:56:13.277Z,36.76
2018-07-27T09:58:42.199Z,36.75
2018-07-27T10:01:16.533Z,36.08
2018-07-27T10:03:45.474Z,34.90
2018-07-27T10:06:14.380Z,34.18
2018-07-27T10:08:43.326Z,34.19
2018-07-27T10:11:12.254Z,34.87
2018-07-27T10:13:41.203Z,36.41
2018-07-27T10:16:10.148Z,36.50
2018-07-27T10:18:39.081Z,35.87
2018-07-27T10:21:08.515Z,35.98
2018-07-27T10:23:37.606Z,35.72
2018-07-27T10:26:06.581Z,35.24
2018-07-27T10:28:35.518Z,34.72
2018-07-27T10:31:04.467Z,36.00
2018-07-27T10:33:33.353Z,37.00
2018-07-27T10:36:02.276Z,38.50
2018-07-27T10:38:31.356Z,38.10
2018-07-27T10:41:00.195Z,38.48
2018-07-27T10:43:29.132Z,37.79
2018-07-27T10:45:58.016Z,37.82
2018-07-27T10:48:26.940Z,37.55
2018-07-27T10:50:55.831Z,37.75
2018-07-27T10:53:24.751Z,36.88
2018-07-27T10:55:53.633Z,36.06
2018-07-27T10:58:22.540Z,35.58
2018-07-27T11:00:51.429Z,36.22
2018-07-27T11:03:20.338Z,36.82
2018-07-27T11:05:49.252Z,36.43
2018-07-27T11:08:18.196Z,36.14
2018-07-27T11:10:47.193Z,34.64
2018-07-27T11:13:16.236Z,33.48
2018-07-27T11:15:47.283Z,33.50
2018-07-27T11:18:16.220Z,33.77
2018-07-27T11:20:45.286Z,33.53
2018-07-27T11:23:14.263Z,33.61
2018-07-27T11:25:43.236Z,33.41
2018-07-27T11:28:12.143Z,33.48
2018-07-27T11:30:41.140Z,33.20
2018-07-27T11:33:10.212Z,32.89
2018-07-27T11:35:39.149Z,33.06
2018-07-27T11:38:08.194Z,33.54
2018-07-27T11:40:37.128Z,34.20
2018-07-27T11:43:06.224Z,35.39
2018-07-27T11:45:35.141Z,36.83
2018-07-27T11:48:04.057Z,37.28
2018-07-27T11:50:32.999Z,36.52
2018-07-27T11:53:01.969Z,36.29
2018-07-27T11:55:30.882Z,36.02
2018-07-27T11:58:00.390Z,35.80
2018-07-27T12:00:29.311Z,35.89
2018-07-27T12:02:58.235Z,36.39
2018-07-27T12:05:27.353Z,37.86
2018-07-27T12:07:56.290Z,38.50
2018-07-27T12:10:25.421Z,39.05
2018-07-27T12:12:54.480Z,38.31
2018-07-27T12:15:23.423Z,37.44
2018-07-27T12:17:52.353Z,36.27
2018-07-27T12:20:21.280Z,35.90
2018-07-27T12:22:50.290Z,35.16
2018-07-27T12:25:19.214Z,34.82
2018-07-27T12:27:48.116Z,34.58
2018-07-27T12:30:17.014Z,34.21
2018-07-27T12:32:45.980Z,34.03
2018-07-27T12:35:14.868Z,33.95
2018-07-27T12:37:43.775Z,34.35
2018-07-27T12:40:12.712Z,35.26
2018-07-27T12:42:41.772Z,35.80
2018-07-27T12:45:10.675Z,36.24
2018-07-27T12:47:39.586Z,35.89
2018-07-27T12:50:08.528Z,36.51
2018-07-27T12:52:37.475Z,37.10
2018-07-27T12:55:06.836Z,38.20
2018-07-27T12:57:35.874Z,38.50
2018-07-27T13:00:06.401Z,38.21
2018-07-27T13:02:35.350Z,38.92
2018-07-27T13:05:04.760Z,39.52
2018-07-27T13:07:33.636Z,40.14
2018-07-27T13:10:04.475Z,38.58
2018-07-27T13:12:34.400Z,37.49
2018-07-27T13:15:03.329Z,36.48
2018-07-27T13:17:32.269Z,35.91
2018-07-27T13:20:01.201Z,35.10
2018-07-27T13:22:30.206Z,34.36
2018-07-27T13:24:59.131Z,33.67
2018-07-27T13:27:28.139Z,33.18
2018-07-27T13:29:57.067Z,32.64
2018-07-27T13:32:26.008Z,32.37
2018-07-27T13:34:56.930Z,32.23
2018-07-27T13:37:27.168Z,31.84
2018-07-27T13:39:57.262Z,31.69
2018-07-27T13:42:27.402Z,31.51
2018-07-27T13:44:56.488Z,30.95
2018-07-27T13:47:25.420Z,30.59
2018-07-27T13:49:54.702Z,30.21
2018-07-27T13:52:23.809Z,30.02
2018-07-27T13:54:52.791Z,30.07
2018-07-27T13:57:21.718Z,30.00
2018-07-27T13:59:50.637Z,29.83
2018-07-27T14:02:19.564Z,29.50
2018-07-27T14:04:48.596Z,29.17
2018-07-27T14:07:17.608Z,28.61
2018-07-27T14:09:46.908Z,27.75
2018-07-27T14:12:15.853Z,26.89
2018-07-27T14:14:44.784Z,26.22
2018-07-27T14:17:13.734Z,25.03
2018-07-27T14:19:42.711Z,24.53
2018-07-27T14:22:11.768Z,23.65
2018-07-27T14:24:40.706Z,23.14
2018-07-27T14:27:09.615Z,22.65
2018-07-27T14:29:38.561Z,22.38
2018-07-27T14:32:07.485Z,22.35
2018-07-27T14:34:36.382Z,22.23
2018-07-27T14:37:05.335Z,21.94
2018-07-27T14:39:34.224Z,22.02
2018-07-27T14:42:03.198Z,22.11
2018-07-27T14:44:32.220Z,22.01
2018-07-27T14:47:01.052Z,22.07
2018-07-27T14:49:29.944Z,22.08
2018-07-27T14:51:58.888Z,22.13
2018-07-27T14:54:27.861Z,22.29
2018-07-27T14:56:57.001Z,22.36
2018-07-27T14:59:25.933Z,22.41
2018-07-27T15:01:54.960Z,22.51
2018-07-27T15:04:23.871Z,22.62
2018-07-27T15:06:52.785Z,22.67
2018-07-27T15:09:21.738Z,22.73
2018-07-27T15:11:50.677Z,22.96
2018-07-27T15:14:19.584Z,23.02
2018-07-27T15:16:48.806Z,23.23
2018-07-27T15:19:17.799Z,23.22
2018-07-27T15:21:46.732Z,23.36
2018-07-27T15:24:15.773Z,23.54
2018-07-27T15:26:44.707Z,23.50
2018-07-27T15:29:13.633Z,23.56
2018-07-27T15:31:42.550Z,23.82
2018-07-27T15:34:11.480Z,23.81
2018-07-27T15:36:40.500Z,23.96
2018-07-27T15:39:10.102Z,24.24
2018-07-27T15:41:39.045Z,24.32
2018-07-27T15:44:08.016Z,24.45
2018-07-27T15:46:36.982Z,24.41
2018-07-27T15:49:06.077Z,24.43
2018-07-27T15:51:35.088Z,24.48
2018-07-27T15:54:04.037Z,24.36
2018-07-27T15:56:32.989Z,24.41
2018-07-27T15:59:02.028Z,24.35
2018-07-27T16:01:30.971Z,24.59
2018-07-27T16:03:59.907Z,24.40
2018-07-27T16:06:28.792Z,24.34
2018-07-27T16:08:57.704Z,24.61
2018-07-27T16:11:26.591Z,24.91
2018-07-27T16:13:55.540Z,25.04
2018-07-27T16:16:24.415Z,25.29
2018-07-27T16:18:53.344Z,25.23
2018-07-27T16:21:22.284Z,25.09
2018-07-27T16:23:51.227Z,25.03
2018-07-27T16:26:20.160Z,24.86
2018-07-27T16:28:49.154Z,24.54
2018-07-27T16:31:18.156Z,24.54
2018-07-27T16:33:47.134Z,24.80
2018-07-27T16:36:16.020Z,24.65
2018-07-27T16:38:44.972Z,24.62
2018-07-27T16:41:13.920Z,24.43
2018-07-27T16:43:42.981Z,24.58
2018-07-27T16:46:11.915Z,24.50
2018-07-27T16:48:40.922Z,24.49
2018-07-27T16:51:09.837Z,24.29
2018-07-27T16:53:38.782Z,24.42
2018-07-27T16:56:07.720Z,24.80
2018-07-27T16:58:36.726Z,24.85
2018-07-27T17:01:05.654Z,24.84
2018-07-27T17:03:34.652Z,24.75
2018-07-27T17:06:03.581Z,24.65
2018-07-27T17:08:32.692Z,24.67
2018-07-27T17:11:01.600Z,24.43
2018-07-27T17:13:30.532Z,24.32
2018-07-27T17:15:59.463Z,24.13
2018-07-27T17:18:28.564Z,24.13
2018-07-27T17:20:57.909Z,24.32
2018-07-27T17:23:26.872Z,24.29
2018-07-27T17:25:55.799Z,24.41
2018-07-27T17:28:24.777Z,24.51
2018-07-27T17:30:53.634Z,24.37
2018-07-27T17:33:22.548Z,24.36
2018-07-27T17:35:51.463Z,24.27
2018-07-27T17:38:20.399Z,24.24
2018-07-27T17:40:49.485Z,24.30
2018-07-27T17:43:18.541Z,23.99
2018-07-27T17:45:47.474Z,23.92
2018-07-27T17:48:16.438Z,23.84
2018-07-27T17:50:45.514Z,23.82
2018-07-27T17:53:14.436Z,23.66
2018-07-27T17:55:43.410Z,23.65
2018-07-27T17:58:12.351Z,23.59
2018-07-27T18:00:41.496Z,23.55
2018-07-27T18:03:10.442Z,23.49
2018-07-27T18:05:39.381Z,23.52
2018-07-27T18:08:08.461Z,23.25
2018-07-27T18:10:37.384Z,23.28
2018-07-27T18:13:06.352Z,23.17
2018-07-27T18:15:35.254Z,23.29
2018-07-27T18:18:04.166Z,23.14
2018-07-27T18:20:33.125Z,23.17
2018-07-27T18:23:02.064Z,23.21
2018-07-27T18:25:31.079Z,23.07
2018-07-27T18:27:59.971Z,22.99
2018-07-27T18:30:28.946Z,22.86
2018-07-27T18:32:57.845Z,22.67
2018-07-27T18:35:26.785Z,22.61
2018-07-27T18:37:55.824Z,22.50
2018-07-27T18:40:24.769Z,22.43
2018-07-27T18:42:53.719Z,22.46
2018-07-27T18:45:22.673Z,22.44
2018-07-27T18:47:51.644Z,22.46
2018-07-27T18:50:20.539Z,22.49
2018-07-27T18:52:49.495Z,22.50
2018-07-27T18:55:18.500Z,22.52
2018-07-27T18:57:47.486Z,22.49
2018-07-27T19:00:16.412Z,22.53
2018-07-27T19:02:45.378Z,22.54
2018-07-27T19:05:14.395Z,22.53
2018-07-27T19:07:43.359Z,22.48
2018-07-27T19:10:12.313Z,22.44
2018-07-27T19:12:41.291Z,22.40
2018-07-27T19:15:10.253Z,22.38
2018-07-27T19:17:39.424Z,22.30
2018-07-27T19:20:08.359Z,22.16
2018-07-27T19:22:37.328Z,22.20
2018-07-27T19:25:06.380Z,22.04
2018-07-27T19:27:35.326Z,21.96
2018-07-27T19:30:06.588Z,21.99
2018-07-27T19:32:35.535Z,21.97
2018-07-27T19:35:04.514Z,21.85
2018-07-27T19:37:33.474Z,21.77
2018-07-27T19:40:02.468Z,21.77
2018-07-27T19:42:31.515Z,21.75
2018-07-27T19:45:00.455Z,21.67
2018-07-27T19:47:29.418Z,21.54
2018-07-27T19:49:58.368Z,21.60
2018-07-27T19:52:27.321Z,21.47
2018-07-27T19:54:56.403Z,21.51
2018-07-27T19:57:25.332Z,21.37
2018-07-27T19:59:54.622Z,21.27
2018-07-27T20:02:23.586Z,21.15
2018-07-27T20:04:52.456Z,20.97
2018-07-27T20:07:21.483Z,20.87
2018-07-27T20:09:50.431Z,20.85
2018-07-27T20:12:19.408Z,20.82
2018-07-27T20:14:48.351Z,20.82
2018-07-27T20:17:17.299Z,20.86
2018-07-27T20:19:46.255Z,20.91
2018-07-27T20:22:15.385Z,20.87
2018-07-27T20:24:44.348Z,20.90
2018-07-27T20:27:13.299Z,20.94
2018-07-27T20:29:42.319Z,20.95
2018-07-27T20:32:11.317Z,20.99
2018-07-27T20:34:40.295Z,21.02
2018-07-27T20:37:09.363Z,21.01
2018-07-27T20:39:38.405Z,21.12
2018-07-27T20:42:07.403Z,21.11
2018-07-27T20:44:36.379Z,21.13
2018-07-27T20:47:05.854Z,21.06
2018-07-27T20:49:34.799Z,21.05
2018-07-27T20:52:03.733Z,20.97
2018-07-27T20:54:32.751Z,20.97
2018-07-27T20:57:01.756Z,20.99
2018-07-27T20:59:30.672Z,21.02
2018-07-27T21:01:59.600Z,21.02
2018-07-27T21:04:28.581Z,21.08
2018-07-27T21:06:57.461Z,21.07
2018-07-27T21:09:26.404Z,21.08
2018-07-27T21:11:55.377Z,21.06
2018-07-27T21:14:24.351Z,21.04
2018-07-27T21:16:53.313Z,20.99
2018-07-27T21:19:22.208Z,20.93
2018-07-27T21:21:51.231Z,20.86
2018-07-27T21:24:20.189Z,20.83
2018-07-27T21:26:49.145Z,20.77
2018-07-27T21:29:18.063Z,20.66
2018-07-27T21:31:46.989Z,20.47
2018-07-27T21:34:17.289Z,20.37
2018-07-27T21:36:47.655Z,20.43
2018-07-27T21:39:16.938Z,20.45
2018-07-27T21:41:45.897Z,20.42
2018-07-27T21:44:15.645Z,20.45
2018-07-27T21:46:44.576Z,20.44
2018-07-27T21:49:13.503Z,20.46
2018-07-27T21:51:42.482Z,20.42
2018-07-27T21:54:11.374Z,20.44
2018-07-27T21:56:40.324Z,20.44
2018-07-27T21:59:09.344Z,20.40
2018-07-27T22:01:38.289Z,20.44
2018-07-27T22:04:07.386Z,20.59
2018-07-27T22:06:36.393Z,20.54
2018-07-27T22:09:08.153Z,20.53
2018-07-27T22:11:37.118Z,20.46
2018-07-27T22:14:06.117Z,20.27
2018-07-27T22:16:35.221Z,20.21
2018-07-27T22:19:04.201Z,20.19
2018-07-27T22:21:33.151Z,20.18
2018-07-27T22:24:02.064Z,20.14
2018-07-27T22:26:31.033Z,20.14
2018-07-27T22:28:59.960Z,20.15
2018-07-27T22:31:28.866Z,20.10
2018-07-27T22:33:57.788Z,20.08
2018-07-27T22:36:26.715Z,20.08
2018-07-27T22:38:55.714Z,20.12
2018-07-27T22:41:24.889Z,20.11
2018-07-27T22:43:53.831Z,20.11
2018-07-27T22:46:22.761Z,20.10
2018-07-27T22:48:51.701Z,20.12
2018-07-27T22:51:20.745Z,20.13
2018-07-27T22:53:49.748Z,20.12
2018-07-27T22:56:18.686Z,20.03
2018-07-27T22:58:47.730Z,19.96
2018-07-27T23:01:16.745Z,19.93
2018-07-27T23:03:45.745Z,19.91
2018-07-27T23:06:14.705Z,19.98
2018-07-27T23:08:43.698Z,19.94
2018-07-27T23:11:12.623Z,19.81
2018-07-27T23:13:41.549Z,19.72
2018-07-27T23:16:10.502Z,19.69
2018-07-27T23:18:39.429Z,19.66
2018-07-27T23:21:08.403Z,19.76
2018-07-27T23:23:37.297Z,19.83
2018-07-27T23:26:06.336Z,19.85
2018-07-27T23:28:35.253Z,19.91
2018-07-27T23:31:04.209Z,19.97
2018-07-27T23:33:33.118Z,20.03
2018-07-27T23:36:02.056Z,20.09
2018-07-27T23:38:30.991Z,20.12
2018-07-27T23:41:00.051Z,20.14
2018-07-27T23:43:28.967Z,20.15
2018-07-27T23:45:57.925Z,20.13
2018-07-27T23:48:26.871Z,20.01
2018-07-27T23:50:55.821Z,19.98
2018-07-27T23:53:24.747Z,19.93
2018-07-27T23:55:53.641Z,20.00
2018-07-27T23:58:22.598Z,19.97
